Time,TemperatureF,DewpointF,PressureIn,WindDirection,WindDirectionDegrees,WindSpeedMPH,WindSpeedGustMPH,Humidity,HourlyPrecipIn,Conditions,Clouds,dailyrainin,SoftwareType,DateUTC
2013-10-21 00:02:00,33.3,33.3,29.65,NNE,15,0.0,0.0,100,0.00,,,0.00,VWS V13.01,2013-10-21 04:02:00,
2013-10-21 00:04:00,33.4,33.4,29.65,NNE,15,0.0,0.0,100,0.00,,,0.00,VWS V13.01,2013-10-21 04:04:00,
2013-10-21 00:06:00,33.6,33.6,29.68,NNE,15,0.0,0.0,100,0.00,,,0.00,VWS V13.01,2013-10-21 04:06:00,
2013-10-21 00:12:00,33.4,33.4,29.68,NNE,15,0.0,0.0,100,0.00,,,0.00,VWS V13.01,2013-10-21 04:12:00,
2013-10-21 00:14:00,33.3,33.3,29.68,NNE,15,0.0,0.0,100,0.00,,,0.00,VWS V13.01,2013-10-21 04:14:00,
2013-10-21 00:20:00,33.1,33.1,29.68,NNE,15,0.0,0.0,100,0.00,,,0.00,VWS V13.01,2013-10-21 04:20:00,
2013-10-21 00:24:00,32.7,32.7,29.68,NNE,15,0.0,0.0,100,0.00,,,0.00,VWS V13.01,2013-10-21 04:24:00,
2013-10-21 00:30:00,32.9,32.9,29.68,NNE,15,0.0,0.0,100,0.00,,,0.00,VWS V13.01,2013-10-21 04:30:00,
2013-10-21 00:36:00,33.3,33.3,29.68,NNE,15,0.0,0.0,100,0.00,,,0.00,VWS V13.01,2013-10-21 04:36:00,
2013-10-21 00:42:00,32.7,32.7,29.68,NNE,15,0.0,0.0,100,0.00,,,0.00,VWS V13.01,2013-10-21 04:42:00,
2013-10-21 00:48:00,32.2,32.2,29.68,NNE,15,0.0,0.0,100,0.00,,,0.00,VWS V13.01,2013-10-21 04:48:00,
2013-10-21 00:54:00,32.2,32.2,29.68,NNE,15,0.0,0.0,100,0.00,,,0.00,VWS V13.01,2013-10-21 04:54:00,
2013-10-21 01:00:00,32.7,32.7,29.68,NNE,15,0.0,0.0,100,0.00,,,0.00,VWS V13.01,2013-10-21 05:00:00,
2013-10-21 01:06:00,32.4,32.4,29.68,NNE,15,0.0,0.0,100,0.00,,,0.00,VWS V13.01,2013-10-21 05:06:00,
2013-10-21 01:12:00,32.5,32.5,29.68,NNE,15,0.0,0.0,100,0.00,,,0.00,VWS V13.01,2013-10-21 05:12:00,
2013-10-21 01:18:00,32.2,32.2,29.68,NNE,15,0.0,0.0,100,0.00,,,0.00,VWS V13.01,2013-10-21 05:18:00,
2013-10-21 01:24:00,32.5,32.5,29.68,NNE,15,0.0,0.0,100,0.00,,,0.00,VWS V13.01,2013-10-21 05:24:00,
2013-10-21 01:30:00,32.2,32.2,29.68,NNE,15,0.0,0.0,100,0.00,,,0.00,VWS V13.01,2013-10-21 05:30:00,
2013-10-21 01:36:00,31.8,31.8,29.68,NNE,15,0.0,0.0,100,0.00,,,0.00,VWS V13.01,2013-10-21 05:36:00,
2013-10-21 01:42:00,32.4,32.4,29.68,NNE,15,0.0,0.0,100,0.00,,,0.00,VWS V13.01,2013-10-21 05:42:00,
2013-10-21 01:48:00,32.0,32.0,29.68,NNE,15,0.0,0.0,100,0.00,,,0.00,VWS V13.01,2013-10-21 05:48:00,
2013-10-21 01:54:00,32.0,32.0,29.68,NNE,15,0.0,0.0,100,0.00,,,0.00,VWS V13.01,2013-10-21 05:54:00,
2013-10-21 02:00:00,32.4,32.4,29.68,NNE,15,0.0,0.0,100,0.00,,,0.00,VWS V13.01,2013-10-21 06:00:00,
2013-10-21 02:06:00,32.0,32.0,29.68,NNE,15,0.0,0.0,100,0.00,,,0.00,VWS V13.01,2013-10-21 06:06:00,
2013-10-21 02:12:00,32.0,32.0,29.68,NNE,15,0.0,0.0,100,0.00,,,0.00,VWS V13.01,2013-10-21 06:12:00,
2013-10-21 02:18:00,31.6,31.6,29.68,NNE,15,0.0,0.0,100,0.00,,,0.00,VWS V13.01,2013-10-21 06:18:00,
2013-10-21 02:24:00,32.0,32.0,29.71,NNE,15,0.0,0.0,100,0.00,,,0.00,VWS V13.01,2013-10-21 06:24:00,
2013-10-21 02:30:00,31.8,31.8,29.71,NNE,15,0.0,0.0,100,0.00,,,0.00,VWS V13.01,2013-10-21 06:30:00,
2013-10-21 02:36:00,32.2,32.2,29.71,NNE,15,0.0,0.0,100,0.00,,,0.00,VWS V13.01,2013-10-21 06:36:00,
2013-10-21 02:42:00,32.2,32.2,29.71,NNE,15,0.0,0.0,100,0.00,,,0.00,VWS V13.01,2013-10-21 06:42:00,
2013-10-21 02:48:00,31.5,31.5,29.71,NNE,15,0.0,0.0,100,0.00,,,0.00,VWS V13.01,2013-10-21 06:48:00,
2013-10-21 02:54:00,31.6,31.6,29.71,NNE,15,0.0,0.0,100,0.00,,,0.00,VWS V13.01,2013-10-21 06:54:00,
2013-10-21 03:00:00,31.8,31.8,29.71,NNE,15,0.0,0.0,100,0.00,,,0.00,VWS V13.01,2013-10-21 07:00:00,
2013-10-21 03:06:00,32.5,32.5,29.71,NNE,15,0.0,0.0,100,0.00,,,0.00,VWS V13.01,2013-10-21 07:06:00,
2013-10-21 03:12:00,32.5,32.5,29.71,NNE,15,0.0,0.0,100,0.00,,,0.00,VWS V13.01,2013-10-21 07:12:00,
2013-10-21 03:18:00,32.7,32.7,29.71,NNE,15,0.0,0.0,100,0.00,,,0.00,VWS V13.01,2013-10-21 07:18:00,
2013-10-21 03:24:00,32.5,32.5,29.71,NNE,15,0.0,0.0,100,0.00,,,0.00,VWS V13.01,2013-10-21 07:24:00,
2013-10-21 03:30:00,32.5,32.5,29.71,NNE,15,0.0,0.0,100,0.00,,,0.00,VWS V13.01,2013-10-21 07:30:00,
2013-10-21 03:36:00,32.4,32.4,29.71,NNE,15,0.0,0.0,100,0.00,,,0.00,VWS V13.01,2013-10-21 07:36:00,
2013-10-21 03:42:00,32.2,32.2,29.71,NNE,15,0.0,0.0,100,0.00,,,0.00,VWS V13.01,2013-10-21 07:42:00,
2013-10-21 03:48:00,32.2,32.2,29.71,NNE,15,0.0,0.0,100,0.00,,,0.00,VWS V13.01,2013-10-21 07:48:00,
2013-10-21 03:54:00,32.2,32.2,29.71,NNE,15,0.0,0.0,100,0.00,,,0.00,VWS V13.01,2013-10-21 07:54:00,
2013-10-21 04:00:00,31.8,31.8,29.71,NNE,15,0.0,0.0,100,0.00,,,0.00,VWS V13.01,2013-10-21 08:00:00,
2013-10-21 04:06:00,32.2,32.2,29.68,NNE,15,0.0,0.0,100,0.00,,,0.00,VWS V13.01,2013-10-21 08:06:00,
2013-10-21 04:12:00,32.4,32.4,29.68,NNE,15,0.0,0.0,100,0.00,,,0.00,VWS V13.01,2013-10-21 08:12:00,
2013-10-21 04:18:00,32.5,32.5,29.68,NNE,15,0.0,0.0,100,0.00,,,0.00,VWS V13.01,2013-10-21 08:18:00,
2013-10-21 04:24:00,32.0,32.0,29.71,NNE,15,0.0,0.0,100,0.00,,,0.00,VWS V13.01,2013-10-21 08:24:00,
2013-10-21 04:30:00,32.0,32.0,29.71,NNE,15,0.0,0.0,100,0.00,,,0.00,VWS V13.01,2013-10-21 08:30:00,
2013-10-21 04:36:00,32.2,32.2,29.71,NNE,15,0.0,0.0,100,0.00,,,0.00,VWS V13.01,2013-10-21 08:36:00,
2013-10-21 04:42:00,32.0,32.0,29.71,NNE,15,0.0,0.0,100,0.00,,,0.00,VWS V13.01,2013-10-21 08:42:00,
2013-10-21 04:48:00,32.5,32.5,29.71,NNE,15,0.0,0.0,100,0.00,,,0.00,VWS V13.01,2013-10-21 08:48:00,
2013-10-21 04:54:00,32.7,32.7,29.71,NNE,15,0.0,0.0,100,0.00,,,0.00,VWS V13.01,2013-10-21 08:54:00,
2013-10-21 05:00:00,32.7,32.7,29.71,NNE,15,0.0,0.0,100,0.00,,,0.00,VWS V13.01,2013-10-21 09:00:00,
2013-10-21 05:06:00,32.7,32.7,29.71,NNE,15,0.0,0.0,100,0.00,,,0.00,VWS V13.01,2013-10-21 09:06:00,
2013-10-21 05:12:00,32.7,32.7,29.71,NNE,15,0.0,0.0,100,0.00,,,0.00,VWS V13.01,2013-10-21 09:12:00,
2013-10-21 05:18:00,32.5,32.5,29.71,NNE,15,0.0,0.0,100,0.00,,,0.00,VWS V13.01,2013-10-21 09:18:00,
2013-10-21 05:24:00,32.5,32.5,29.71,NNE,15,0.0,0.0,100,0.00,,,0.00,VWS V13.01,2013-10-21 09:24:00,
2013-10-21 05:30:00,32.4,32.4,29.71,NNE,15,0.0,0.0,100,0.00,,,0.00,VWS V13.01,2013-10-21 09:30:00,
2013-10-21 05:36:00,32.4,32.4,29.71,NNE,15,0.0,0.0,100,0.00,,,0.00,VWS V13.01,2013-10-21 09:36:00,
2013-10-21 05:42:00,32.5,32.5,29.71,NNE,15,0.0,0.0,100,0.00,,,0.00,VWS V13.01,2013-10-21 09:42:00,
2013-10-21 05:48:00,32.9,32.9,29.71,NNE,15,0.0,0.0,100,0.00,,,0.00,VWS V13.01,2013-10-21 09:48:00,
2013-10-21 05:54:00,32.7,32.7,29.71,NNE,15,0.0,0.0,100,0.00,,,0.00,VWS V13.01,2013-10-21 09:54:00,
2013-10-21 06:00:00,32.7,32.7,29.71,NNE,15,0.0,0.0,100,0.00,,,0.00,VWS V13.01,2013-10-21 10:00:00,
2013-10-21 06:06:00,32.9,32.9,29.71,NNE,15,0.0,0.0,100,0.00,,,0.00,VWS V13.01,2013-10-21 10:06:00,
2013-10-21 06:12:00,33.1,33.1,29.71,NNE,15,0.0,0.0,100,0.00,,,0.00,VWS V13.01,2013-10-21 10:12:00,
2013-10-21 06:18:00,33.1,33.1,29.71,NNE,15,0.0,0.0,100,0.00,,,0.00,VWS V13.01,2013-10-21 10:18:00,
2013-10-21 06:24:00,32.9,32.9,29.71,NNE,15,0.0,0.0,100,0.00,,,0.00,VWS V13.01,2013-10-21 10:24:00,
2013-10-21 06:30:00,32.2,32.2,29.71,NNE,15,0.0,0.0,100,0.00,,,0.00,VWS V13.01,2013-10-21 10:30:00,
2013-10-21 06:36:00,32.0,32.0,29.71,NNE,15,0.0,0.0,100,0.00,,,0.00,VWS V13.01,2013-10-21 10:36:00,
2013-10-21 06:42:00,31.5,31.5,29.71,NNE,15,0.0,0.0,100,0.00,,,0.00,VWS V13.01,2013-10-21 10:42:00,
2013-10-21 06:48:00,32.0,32.0,29.71,NNE,15,0.0,0.0,100,0.00,,,0.00,VWS V13.01,2013-10-21 10:48:00,
2013-10-21 06:54:00,31.6,31.6,29.71,NNE,15,0.0,0.0,100,0.00,,,0.00,VWS V13.01,2013-10-21 10:54:00,
2013-10-21 07:00:00,31.1,31.1,29.71,NNE,15,0.0,0.0,100,0.00,,,0.00,VWS V13.01,2013-10-21 11:00:00,
2013-10-21 07:06:00,31.1,31.1,29.71,NNE,15,0.0,0.0,100,0.00,,,0.00,VWS V13.01,2013-10-21 11:06:00,
2013-10-21 07:12:00,31.6,31.6,29.71,NNE,15,0.0,0.0,100,0.00,,,0.00,VWS V13.01,2013-10-21 11:12:00,
2013-10-21 07:18:00,31.3,31.3,29.71,NNE,15,0.0,0.0,100,0.00,,,0.00,VWS V13.01,2013-10-21 11:18:00,
2013-10-21 07:24:00,31.6,31.6,29.71,NNE,15,0.0,0.0,100,0.00,,,0.00,VWS V13.01,2013-10-21 11:24:00,
2013-10-21 07:30:00,32.0,32.0,29.71,NNE,15,0.0,0.0,100,0.00,,,0.00,VWS V13.01,2013-10-21 11:30:00,
2013-10-21 07:36:00,31.8,31.8,29.71,NNE,15,0.0,0.0,100,0.00,,,0.00,VWS V13.01,2013-10-21 11:36:00,
2013-10-21 07:42:00,32.9,32.9,29.71,NNE,15,0.0,0.0,100,0.00,,,0.00,VWS V13.01,2013-10-21 11:42:00,
2013-10-21 07:48:00,35.4,35.4,29.71,NNE,15,0.0,0.0,100,0.00,,,0.00,VWS V13.01,2013-10-21 11:48:00,
2013-10-21 07:54:00,37.6,37.6,29.71,NNE,15,0.0,0.0,100,0.00,,,0.00,VWS V13.01,2013-10-21 11:54:00,
2013-10-21 08:00:00,38.8,38.8,29.71,NNE,15,0.0,0.0,100,0.00,,,0.00,VWS V13.01,2013-10-21 12:00:00,
2013-10-21 08:06:00,40.3,40.3,29.71,NNE,15,0.0,0.0,100,0.00,,,0.00,VWS V13.01,2013-10-21 12:06:00,
2013-10-21 08:12:00,40.6,40.6,29.74,NNE,15,0.0,0.0,100,0.00,,,0.00,VWS V13.01,2013-10-21 12:12:00,
2013-10-21 08:18:00,40.5,40.5,29.74,NNE,15,0.0,0.0,100,0.00,,,0.00,VWS V13.01,2013-10-21 12:18:00,
2013-10-21 08:24:00,41.0,41.0,29.74,NNE,15,0.0,0.0,100,0.00,,,0.00,VWS V13.01,2013-10-21 12:24:00,
2013-10-21 08:30:00,42.6,42.6,29.74,NNE,15,0.0,0.0,100,0.00,,,0.00,VWS V13.01,2013-10-21 12:30:00,
2013-10-21 08:36:00,45.1,45.1,29.74,NNE,15,0.0,0.0,100,0.00,,,0.00,VWS V13.01,2013-10-21 12:36:00,
2013-10-21 08:42:00,46.8,46.8,29.74,ENE,58,0.0,0.0,100,0.00,,,0.00,VWS V13.01,2013-10-21 12:42:00,
2013-10-21 08:48:00,44.2,44.2,29.74,ENE,58,0.0,0.0,100,0.00,,,0.00,VWS V13.01,2013-10-21 12:48:00,
2013-10-21 08:54:00,44.2,44.2,29.74,ENE,58,0.0,0.0,100,0.00,,,0.00,VWS V13.01,2013-10-21 12:54:00,
2013-10-21 09:00:00,42.1,42.1,29.74,ENE,61,0.0,0.0,100,0.00,,,0.00,VWS V13.01,2013-10-21 13:00:00,
2013-10-21 09:06:00,45.5,45.5,29.74,ESE,114,0.0,6.3,100,0.00,,,0.00,VWS V13.01,2013-10-21 13:06:00,
2013-10-21 09:12:00,44.1,44.1,29.74,ESE,110,0.0,5.4,100,0.00,,,0.00,VWS V13.01,2013-10-21 13:12:00,
2013-10-21 09:18:00,43.5,43.5,29.74,ESE,115,0.0,6.3,100,0.00,,,0.00,VWS V13.01,2013-10-21 13:18:00,
2013-10-21 09:24:00,42.6,42.6,29.74,ESE,116,4.0,5.4,100,0.00,,,0.00,VWS V13.01,2013-10-21 13:24:00,
2013-10-21 09:30:00,43.2,43.2,29.74,ESE,120,0.0,4.5,100,0.00,,,0.00,VWS V13.01,2013-10-21 13:30:00,
2013-10-21 09:36:00,43.5,43.5,29.71,SE,143,4.7,6.3,100,0.00,,,0.00,VWS V13.01,2013-10-21 13:36:00,
2013-10-21 09:42:00,44.6,44.6,29.71,SE,132,0.0,4.5,100,0.00,,,0.00,VWS V13.01,2013-10-21 13:42:00,
2013-10-21 09:48:00,47.3,47.3,29.71,SE,141,6.0,8.1,100,0.00,,,0.00,VWS V13.01,2013-10-21 13:48:00,
2013-10-21 09:54:00,51.1,51.1,29.71,SE,136,0.0,0.0,100,0.00,,,0.00,VWS V13.01,2013-10-21 13:54:00,
2013-10-21 10:00:00,50.2,50.2,29.71,ESE,123,3.4,5.4,100,0.00,,,0.00,VWS V13.01,2013-10-21 14:00:00,
2013-10-21 10:06:00,48.7,48.7,29.71,ESE,123,0.0,0.0,100,0.00,,,0.00,VWS V13.01,2013-10-21 14:06:00,
2013-10-21 10:12:00,48.2,48.2,29.71,SSE,153,0.0,0.0,100,0.00,,,0.00,VWS V13.01,2013-10-21 14:12:00,
2013-10-21 10:20:00,47.7,47.7,29.71,South,176,0.0,0.0,100,0.00,,,0.00,VWS V13.01,2013-10-21 14:20:00,
2013-10-21 10:26:00,47.7,47.7,29.71,ESE,115,0.0,0.0,100,0.00,,,0.00,VWS V13.01,2013-10-21 14:26:00,
2013-10-21 10:32:00,46.8,46.8,29.71,East,92,0.0,5.4,100,0.00,,,0.00,VWS V13.01,2013-10-21 14:32:00,
2013-10-21 10:38:00,46.0,46.0,29.71,East,97,0.0,0.0,100,0.00,,,0.00,VWS V13.01,2013-10-21 14:38:00,
2013-10-21 10:44:00,45.5,45.5,29.71,East,101,0.0,6.3,100,0.00,,,0.00,VWS V13.01,2013-10-21 14:44:00,
2013-10-21 10:50:00,45.0,45.0,29.71,ESE,118,0.0,8.1,100,0.00,,,0.00,VWS V13.01,2013-10-21 14:50:00,
2013-10-21 10:56:00,44.8,44.8,29.71,SE,138,0.0,0.0,100,0.00,,,0.00,VWS V13.01,2013-10-21 14:56:00,
2013-10-21 11:02:00,45.0,45.0,29.71,ESE,123,5.4,7.2,100,0.00,,,0.00,VWS V13.01,2013-10-21 15:02:00,
2013-10-21 11:08:00,45.1,45.1,29.68,ESE,110,4.7,8.1,100,0.00,,,0.00,VWS V13.01,2013-10-21 15:08:00,
2013-10-21 11:14:00,45.3,45.3,29.68,ESE,103,0.0,5.4,100,0.00,,,0.00,VWS V13.01,2013-10-21 15:14:00,
2013-10-21 11:20:00,46.2,46.2,29.68,ESE,105,0.0,0.0,100,0.00,,,0.00,VWS V13.01,2013-10-21 15:20:00,
2013-10-21 11:26:00,46.4,46.4,29.68,ESE,118,0.0,7.2,100,0.00,,,0.00,VWS V13.01,2013-10-21 15:26:00,
2013-10-21 11:32:00,46.4,46.4,29.68,ESE,122,6.0,8.1,100,0.00,,,0.00,VWS V13.01,2013-10-21 15:32:00,
2013-10-21 11:38:00,46.8,46.8,29.68,ESE,115,0.0,7.2,100,0.00,,,0.00,VWS V13.01,2013-10-21 15:38:00,
2013-10-21 11:44:00,47.7,47.7,29.68,ESE,118,4.0,7.2,100,0.00,,,0.00,VWS V13.01,2013-10-21 15:44:00,
2013-10-21 11:50:00,49.3,49.3,29.68,ESE,111,0.0,7.2,100,0.00,,,0.00,VWS V13.01,2013-10-21 15:50:00,
2013-10-21 11:56:00,49.5,49.5,29.68,SE,124,3.4,7.2,100,0.00,,,0.00,VWS V13.01,2013-10-21 15:56:00,
2013-10-21 12:02:00,49.1,49.1,29.68,ESE,115,4.0,6.3,100,0.00,,,0.00,VWS V13.01,2013-10-21 16:02:00,
2013-10-21 12:08:00,48.9,48.9,29.68,ESE,113,4.7,8.1,100,0.00,,,0.00,VWS V13.01,2013-10-21 16:08:00,
2013-10-21 12:14:00,49.5,49.5,29.68,ESE,122,0.0,7.2,100,0.00,,,0.00,VWS V13.01,2013-10-21 16:14:00,
2013-10-21 12:20:00,49.3,49.3,29.68,SE,126,0.0,5.4,100,0.00,,,0.00,VWS V13.01,2013-10-21 16:20:00,
2013-10-21 12:26:00,48.7,48.7,29.68,ESE,121,3.4,5.4,100,0.00,,,0.00,VWS V13.01,2013-10-21 16:26:00,
2013-10-21 12:32:00,48.6,48.6,29.68,ESE,121,0.0,0.0,100,0.00,,,0.00,VWS V13.01,2013-10-21 16:32:00,
2013-10-21 12:38:00,48.9,48.9,29.68,ESE,123,0.0,6.3,100,0.00,,,0.00,VWS V13.01,2013-10-21 16:38:00,
2013-10-21 12:44:00,48.6,48.6,29.68,ESE,117,5.4,7.2,100,0.00,,,0.00,VWS V13.01,2013-10-21 16:44:00,
2013-10-21 12:50:00,48.2,48.2,29.68,ESE,117,0.0,0.0,100,0.00,,,0.00,VWS V13.01,2013-10-21 16:50:00,
2013-10-21 12:56:00,47.8,47.8,29.65,ESE,105,0.0,7.2,100,0.00,,,0.00,VWS V13.01,2013-10-21 16:56:00,
2013-10-21 13:02:00,48.9,48.9,29.65,ESE,105,0.0,0.0,100,0.00,,,0.00,VWS V13.01,2013-10-21 17:02:00,
2013-10-21 13:08:00,49.6,49.6,29.65,ESE,105,0.0,0.0,100,0.00,,,0.00,VWS V13.01,2013-10-21 17:08:00,
2013-10-21 13:14:00,50.2,50.2,29.65,ESE,114,3.4,7.2,100,0.00,,,0.00,VWS V13.01,2013-10-21 17:14:00,
2013-10-21 13:20:00,50.5,50.5,29.65,SSE,152,0.0,7.2,100,0.00,,,0.00,VWS V13.01,2013-10-21 17:20:00,
2013-10-21 13:26:00,50.7,50.7,29.65,ESE,118,0.0,7.2,100,0.00,,,0.00,VWS V13.01,2013-10-21 17:26:00,
2013-10-21 13:32:00,55.6,55.6,29.65,SSE,152,4.7,8.1,100,0.00,,,0.00,VWS V13.01,2013-10-21 17:32:00,
2013-10-21 13:38:00,58.5,50.9,29.65,SE,130,4.7,11.6,76,0.00,,,0.00,VWS V13.01,2013-10-21 17:38:00,
2013-10-21 13:44:00,58.8,55.3,29.65,ESE,116,0.0,7.2,88,0.00,,,0.00,VWS V13.01,2013-10-21 17:44:00,
2013-10-21 13:50:00,61.3,53.7,29.65,South,174,5.4,7.2,76,0.00,,,0.00,VWS V13.01,2013-10-21 17:50:00,
2013-10-21 13:56:00,58.1,50.6,29.62,SE,130,9.4,12.5,76,0.00,,,0.00,VWS V13.01,2013-10-21 17:56:00,
2013-10-21 14:02:00,54.1,54.1,29.62,South,169,0.0,8.1,100,0.00,,,0.00,VWS V13.01,2013-10-21 18:02:00,
2013-10-21 14:08:00,54.3,54.3,29.62,SE,125,4.0,8.1,100,0.00,,,0.00,VWS V13.01,2013-10-21 18:08:00,
2013-10-21 14:14:00,53.8,53.8,29.62,ESE,116,0.0,0.0,100,0.00,,,0.00,VWS V13.01,2013-10-21 18:14:00,
2013-10-21 14:20:00,53.4,53.4,29.62,SE,127,6.0,8.1,100,0.00,,,0.00,VWS V13.01,2013-10-21 18:20:00,
2013-10-21 14:26:00,53.4,53.4,29.62,ESE,109,0.0,5.4,100,0.00,,,0.00,VWS V13.01,2013-10-21 18:26:00,
2013-10-21 14:32:00,53.1,53.1,29.62,ESE,123,4.7,8.9,100,0.00,,,0.00,VWS V13.01,2013-10-21 18:32:00,
2013-10-21 14:38:00,52.9,52.9,29.62,ESE,109,4.7,8.1,100,0.00,,,0.00,VWS V13.01,2013-10-21 18:38:00,
2013-10-21 14:44:00,53.1,53.1,29.62,SE,135,5.4,8.1,100,0.00,,,0.00,VWS V13.01,2013-10-21 18:44:00,
2013-10-21 14:50:00,52.7,52.7,29.62,East,100,0.0,7.2,100,0.00,,,0.00,VWS V13.01,2013-10-21 18:50:00,
2013-10-21 14:56:00,53.1,53.1,29.62,SE,142,3.4,8.1,100,0.00,,,0.00,VWS V13.01,2013-10-21 18:56:00,
2013-10-21 15:02:00,52.3,52.3,29.62,ESE,104,0.0,9.8,100,0.00,,,0.00,VWS V13.01,2013-10-21 19:02:00,
2013-10-21 15:08:00,51.6,51.6,29.62,East,99,4.7,8.1,100,0.00,,,0.00,VWS V13.01,2013-10-21 19:08:00,
2013-10-21 15:14:00,52.0,52.0,29.62,ESE,108,4.0,6.3,100,0.00,,,0.00,VWS V13.01,2013-10-21 19:14:00,
2013-10-21 15:20:00,51.3,51.3,29.62,East,97,5.4,9.8,100,0.00,,,0.00,VWS V13.01,2013-10-21 19:20:00,
2013-10-21 15:26:00,50.9,50.9,29.62,ESE,113,4.0,7.2,100,0.00,,,0.00,VWS V13.01,2013-10-21 19:26:00,
2013-10-21 15:32:00,50.2,50.2,29.62,ESE,118,3.4,7.2,100,0.00,,,0.00,VWS V13.01,2013-10-21 19:32:00,
2013-10-21 15:38:00,49.8,49.8,29.59,ESE,112,3.4,8.1,100,0.00,,,0.00,VWS V13.01,2013-10-21 19:38:00,
2013-10-21 15:44:00,49.6,49.6,29.59,SE,125,0.0,8.1,100,0.00,,,0.00,VWS V13.01,2013-10-21 19:44:00,
2013-10-21 15:50:00,49.5,49.5,29.59,ESE,113,3.4,7.2,100,0.00,,,0.00,VWS V13.01,2013-10-21 19:50:00,
2013-10-21 15:56:00,49.3,49.3,29.59,SE,128,4.0,8.1,100,0.00,,,0.00,VWS V13.01,2013-10-21 19:56:00,
2013-10-21 16:02:00,49.6,49.6,29.59,SE,130,0.0,0.0,100,0.00,,,0.00,VWS V13.01,2013-10-21 20:02:00,
2013-10-21 16:08:00,49.5,49.5,29.59,East,96,0.0,7.2,100,0.00,,,0.00,VWS V13.01,2013-10-21 20:08:00,
2013-10-21 16:14:00,49.3,49.3,29.59,ESE,112,4.0,7.2,100,0.00,,,0.00,VWS V13.01,2013-10-21 20:14:00,
2013-10-21 16:20:00,49.3,49.3,29.59,ESE,115,4.0,8.1,100,0.00,,,0.00,VWS V13.01,2013-10-21 20:20:00,
2013-10-21 16:26:00,49.3,49.3,29.59,ESE,112,3.4,7.2,100,0.00,,,0.00,VWS V13.01,2013-10-21 20:26:00,
2013-10-21 16:32:00,49.5,49.5,29.59,ESE,110,4.7,8.1,100,0.00,,,0.00,VWS V13.01,2013-10-21 20:32:00,
2013-10-21 16:38:00,49.3,49.3,29.59,SE,135,4.0,8.1,100,0.00,,,0.00,VWS V13.01,2013-10-21 20:38:00,
2013-10-21 16:44:00,49.1,49.1,29.59,East,97,4.7,8.1,100,0.00,,,0.00,VWS V13.01,2013-10-21 20:44:00,
2013-10-21 16:50:00,48.9,48.9,29.59,ESE,117,4.0,8.1,100,0.00,,,0.00,VWS V13.01,2013-10-21 20:50:00,
2013-10-21 16:56:00,48.7,48.7,29.59,SE,125,5.4,8.1,100,0.00,,,0.00,VWS V13.01,2013-10-21 20:56:00,
2013-10-21 17:02:00,48.7,48.7,29.59,ESE,119,0.0,0.0,100,0.00,,,0.00,VWS V13.01,2013-10-21 21:02:00,
2013-10-21 17:08:00,48.7,48.7,29.59,SE,129,4.0,9.8,100,0.00,,,0.00,VWS V13.01,2013-10-21 21:08:00,
2013-10-21 17:14:00,48.7,48.7,29.59,ESE,122,0.0,0.0,100,0.00,,,0.00,VWS V13.01,2013-10-21 21:14:00,
2013-10-21 17:20:00,48.7,48.7,29.59,ESE,106,0.0,6.3,100,0.00,,,0.00,VWS V13.01,2013-10-21 21:20:00,
2013-10-21 17:26:00,48.7,48.7,29.56,SSE,148,0.0,0.0,100,0.00,,,0.00,VWS V13.01,2013-10-21 21:26:00,
2013-10-21 17:32:00,48.7,48.7,29.56,South,170,0.0,0.0,100,0.00,,,0.00,VWS V13.01,2013-10-21 21:32:00,
2013-10-21 17:38:00,48.6,48.6,29.59,SSE,165,0.0,0.0,100,0.00,,,0.00,VWS V13.01,2013-10-21 21:38:00,
2013-10-21 17:44:00,48.6,48.6,29.59,SSE,163,0.0,0.0,100,0.00,,,0.00,VWS V13.01,2013-10-21 21:44:00,
2013-10-21 17:50:00,48.7,48.7,29.59,SSE,164,0.0,0.0,100,0.00,,,0.00,VWS V13.01,2013-10-21 21:50:00,
2013-10-21 17:56:00,48.7,48.7,29.59,SSE,164,0.0,0.0,100,0.00,,,0.00,VWS V13.01,2013-10-21 21:56:00,
2013-10-21 18:02:00,48.6,48.6,29.59,SSE,163,0.0,0.0,100,0.00,,,0.00,VWS V13.01,2013-10-21 22:02:00,
2013-10-21 18:08:00,48.4,48.4,29.59,SSE,163,0.0,0.0,100,0.00,,,0.00,VWS V13.01,2013-10-21 22:08:00,
2013-10-21 18:14:00,48.2,48.2,29.59,SE,131,0.0,0.0,100,0.00,,,0.00,VWS V13.01,2013-10-21 22:14:00,
2013-10-21 18:20:00,48.2,48.2,29.59,SE,131,0.0,0.0,100,0.00,,,0.00,VWS V13.01,2013-10-21 22:20:00,
2013-10-21 18:26:00,48.2,48.2,29.59,ENE,58,0.0,0.0,100,0.00,,,0.00,VWS V13.01,2013-10-21 22:26:00,
2013-10-21 18:32:00,48.2,48.2,29.59,ENE,76,0.0,0.0,100,0.00,,,0.00,VWS V13.01,2013-10-21 22:32:00,
2013-10-21 18:38:00,48.0,48.0,29.59,ENE,77,0.0,0.0,100,0.00,,,0.00,VWS V13.01,2013-10-21 22:38:00,
2013-10-21 18:44:00,47.8,47.8,29.59,ENE,76,0.0,0.0,100,0.00,,,0.00,VWS V13.01,2013-10-21 22:44:00,
2013-10-21 18:50:00,47.8,47.8,29.59,ESE,114,0.0,0.0,100,0.00,,,0.00,VWS V13.01,2013-10-21 22:50:00,
2013-10-21 18:56:00,47.7,47.7,29.59,ESE,115,0.0,0.0,100,0.00,,,0.00,VWS V13.01,2013-10-21 22:56:00,
2013-10-21 19:02:00,47.5,47.5,29.59,ESE,115,0.0,0.0,100,0.00,,,0.00,VWS V13.01,2013-10-21 23:02:00,
2013-10-21 19:08:00,47.5,47.5,29.56,ESE,111,0.0,0.0,100,0.00,,,0.00,VWS V13.01,2013-10-21 23:08:00,
2013-10-21 19:14:00,47.3,47.3,29.56,ESE,113,0.0,0.0,100,0.00,,,0.00,VWS V13.01,2013-10-21 23:14:00,
2013-10-21 19:20:00,47.3,47.3,29.56,SE,124,0.0,0.0,100,0.00,,,0.00,VWS V13.01,2013-10-21 23:20:00,
2013-10-21 19:26:00,47.3,47.3,29.56,SE,124,0.0,0.0,100,0.00,,,0.00,VWS V13.01,2013-10-21 23:26:00,
2013-10-21 19:32:00,47.1,47.1,29.56,SE,124,0.0,0.0,100,0.00,,,0.00,VWS V13.01,2013-10-21 23:32:00,
2013-10-21 19:38:00,47.3,47.3,29.56,SE,124,0.0,0.0,100,0.00,,,0.00,VWS V13.01,2013-10-21 23:38:00,
2013-10-21 19:44:00,47.3,47.3,29.56,SE,127,0.0,0.0,100,0.00,,,0.00,VWS V13.01,2013-10-21 23:44:00,
2013-10-21 19:50:00,47.1,47.1,29.56,SE,127,0.0,0.0,100,0.00,,,0.00,VWS V13.01,2013-10-21 23:50:00,
2013-10-21 19:56:00,47.1,47.1,29.56,ESE,121,0.0,0.0,100,0.00,,,0.00,VWS V13.01,2013-10-21 23:56:00,
2013-10-21 20:02:00,47.1,47.1,29.56,ESE,116,0.0,0.0,100,0.00,,,0.00,VWS V13.01,2013-10-22 00:02:00,
2013-10-21 20:08:00,46.9,46.9,29.53,ESE,116,0.0,0.0,100,0.00,,,0.00,VWS V13.01,2013-10-22 00:08:00,
2013-10-21 20:14:00,46.9,46.9,29.53,ESE,115,0.0,0.0,100,0.00,,,0.00,VWS V13.01,2013-10-22 00:14:00,
2013-10-21 20:20:00,46.9,46.9,29.53,ESE,115,0.0,0.0,100,0.00,,,0.00,VWS V13.01,2013-10-22 00:20:00,
2013-10-21 20:26:00,46.8,46.8,29.53,ESE,115,0.0,0.0,100,0.00,,,0.00,VWS V13.01,2013-10-22 00:26:00,
2013-10-21 20:32:00,46.8,46.8,29.53,ESE,110,0.0,0.0,100,0.00,,,0.00,VWS V13.01,2013-10-22 00:32:00,
2013-10-21 20:38:00,46.6,46.6,29.53,ESE,105,0.0,0.0,100,0.00,,,0.00,VWS V13.01,2013-10-22 00:38:00,
2013-10-21 20:44:00,46.4,46.4,29.53,ESE,105,0.0,0.0,100,0.00,,,0.00,VWS V13.01,2013-10-22 00:44:00,
2013-10-21 20:50:00,46.6,46.6,29.53,ESE,105,0.0,0.0,100,0.00,,,0.00,VWS V13.01,2013-10-22 00:50:00,
2013-10-21 20:56:00,46.6,46.6,29.53,ESE,105,0.0,0.0,100,0.00,,,0.00,VWS V13.01,2013-10-22 00:56:00,
2013-10-21 21:02:00,46.6,46.6,29.53,ESE,105,0.0,0.0,100,0.00,,,0.00,VWS V13.01,2013-10-22 01:02:00,
2013-10-21 21:08:00,46.6,46.6,29.53,ESE,105,0.0,0.0,100,0.00,,,0.00,VWS V13.01,2013-10-22 01:08:00,
2013-10-21 21:14:00,46.8,46.8,29.53,ESE,105,0.0,0.0,100,0.00,,,0.00,VWS V13.01,2013-10-22 01:14:00,
2013-10-21 21:20:00,46.6,46.6,29.53,ESE,105,0.0,0.0,100,0.00,,,0.00,VWS V13.01,2013-10-22 01:20:00,
2013-10-21 21:26:00,46.8,46.8,29.53,ESE,114,0.0,0.0,100,0.00,,,0.00,VWS V13.01,2013-10-22 01:26:00,
2013-10-21 21:32:00,46.8,46.8,29.53,ESE,115,0.0,0.0,100,0.00,,,0.00,VWS V13.01,2013-10-22 01:32:00,
2013-10-21 21:38:00,46.9,46.9,29.53,ESE,120,0.0,0.0,100,0.00,,,0.00,VWS V13.01,2013-10-22 01:38:00,
2013-10-21 21:44:00,46.9,46.9,29.53,SE,127,0.0,5.4,100,0.00,,,0.00,VWS V13.01,2013-10-22 01:44:00,
2013-10-21 21:50:00,47.1,47.1,29.53,SE,127,0.0,0.0,100,0.00,,,0.00,VWS V13.01,2013-10-22 01:50:00,
2013-10-21 21:56:00,47.1,47.1,29.53,SE,127,0.0,0.0,100,0.00,,,0.00,VWS V13.01,2013-10-22 01:56:00,
2013-10-21 22:02:00,47.3,47.3,29.53,NNE,22,0.0,0.0,100,0.00,,,0.00,VWS V13.01,2013-10-22 02:02:00,
2013-10-21 22:08:00,47.3,47.3,29.53,NNE,22,0.0,4.5,100,0.00,,,0.00,VWS V13.01,2013-10-22 02:08:00,
2013-10-21 22:14:00,47.3,47.3,29.53,NNE,27,0.0,0.0,100,0.00,,,0.00,VWS V13.01,2013-10-22 02:14:00,
2013-10-21 22:20:00,47.3,47.3,29.53,ENE,59,0.0,0.0,100,0.00,,,0.00,VWS V13.01,2013-10-22 02:20:00,
2013-10-21 22:26:00,47.3,47.3,29.53,East,98,0.0,0.0,100,0.00,,,0.00,VWS V13.01,2013-10-22 02:26:00,
2013-10-21 22:32:00,47.3,47.3,29.53,East,99,0.0,0.0,100,0.00,,,0.00,VWS V13.01,2013-10-22 02:32:00,
2013-10-21 22:38:00,47.5,47.5,29.53,South,184,0.0,0.0,100,0.00,,,0.00,VWS V13.01,2013-10-22 02:38:00,
2013-10-21 22:44:00,47.5,47.5,29.53,South,184,0.0,0.0,100,0.00,,,0.00,VWS V13.01,2013-10-22 02:44:00,
2013-10-21 22:50:00,47.7,47.7,29.53,South,191,0.0,0.0,100,0.00,,,0.00,VWS V13.01,2013-10-22 02:50:00,
2013-10-21 22:56:00,47.5,47.5,29.50,South,190,0.0,0.0,100,0.00,,,0.00,VWS V13.01,2013-10-22 02:56:00,
2013-10-21 23:02:00,47.7,47.7,29.50,ESE,122,0.0,0.0,100,0.04,,,0.04,VWS V13.01,2013-10-22 03:02:00,
2013-10-21 23:08:00,47.8,47.8,29.50,ESE,118,0.0,0.0,100,0.04,,,0.04,VWS V13.01,2013-10-22 03:08:00,
2013-10-21 23:14:00,47.8,47.8,29.50,NE,46,4.0,6.3,100,0.04,,,0.04,VWS V13.01,2013-10-22 03:14:00,
2013-10-21 23:20:00,47.8,47.8,29.50,ENE,58,0.0,0.0,100,0.04,,,0.04,VWS V13.01,2013-10-22 03:20:00,
2013-10-21 23:26:00,48.0,48.0,29.50,NE,40,0.0,6.3,100,0.04,,,0.04,VWS V13.01,2013-10-22 03:26:00,
2013-10-21 23:32:00,48.0,48.0,29.50,NE,46,0.0,0.0,100,0.04,,,0.04,VWS V13.01,2013-10-22 03:32:00,
2013-10-21 23:38:00,48.2,48.2,29.50,NE,46,0.0,0.0,100,0.04,,,0.04,VWS V13.01,2013-10-22 03:38:00,
2013-10-21 23:44:00,48.2,48.2,29.50,NE,46,0.0,0.0,100,0.04,,,0.04,VWS V13.01,2013-10-22 03:44:00,
2013-10-21 23:50:00,48.0,48.0,29.50,NE,46,0.0,0.0,100,0.04,,,0.04,VWS V13.01,2013-10-22 03:50:00,
2013-10-21 23:56:00,48.2,48.2,29.47,NE,46,0.0,0.0,100,0.04,,,0.04,VWS V13.01,2013-10-22 03:56:00,